Time;durP1;ratioP1;P1;durP2;ratioP2;P2;SDS_P1;SDS_P2;PMS_P1;PMS_P2;Temp;Humidity;BMP_temperature;BMP_pressure;BME280_temperature;BME280_humidity;BME280_pressure;Samples;Min_cycle;Max_cycle;Signal;HPM_P1;HPM_P2
2021/12/17 00:07:00;;;;;;;9.93;8.13;;;;;;;14.80;52.99;102963.69;4881946;29;20093;-88
2021/12/17 00:09:26;;;;;;;10.90;6.90;;;;;;;14.74;53.67;102960.50;4882113;29;20064;-88
2021/12/17 00:11:52;;;;;;;11.00;7.18;;;;;;;14.75;53.37;102962.19;4881801;29;20052;-88
2021/12/17 00:14:26;;;;;;;9.35;6.53;;;;;;;14.91;52.95;102960.59;4882064;29;20025;-88
2021/12/17 00:16:53;;;;;;;13.48;6.50;;;;;;;14.83;53.04;102960.94;4893288;29;20033;-88
2021/12/17 00:48:55;;;;;;;9.68;5.90;;;;;;;14.82;53.45;102955.72;4881975;29;20036;-88
2021/12/17 00:54:19;;;;;;;8.35;6.18;;;;;;;14.87;53.82;102962.50;4881109;29;20032;-88
2021/12/17 00:56:46;;;;;;;12.05;6.85;;;;;;;14.73;53.69;102969.34;4887831;29;20515;-88
2021/12/17 00:59:11;;;;;;;8.85;6.22;;;;;;;14.67;53.92;102957.25;4899877;29;20502;-88
2021/12/17 01:01:37;;;;;;;8.65;6.35;;;;;;;14.56;54.21;102955.09;4899864;29;20033;-88
2021/12/17 01:04:02;;;;;;;8.52;5.65;;;;;;;14.71;53.56;102957.97;4899020;29;20024;-88
2021/12/17 01:06:28;;;;;;;8.95;5.90;;;;;;;14.88;53.56;102961.56;4889985;29;20036;-88
2021/12/17 01:08:55;;;;;;;7.30;5.50;;;;;;;14.76;53.66;102953.34;4880887;29;20112;-87
2021/12/17 01:11:21;;;;;;;9.15;5.55;;;;;;;14.73;53.75;102950.81;4881015;29;20025;-88
2021/12/17 01:13:47;;;;;;;6.60;5.05;;;;;;;14.79;53.55;102953.19;4880973;29;20033;-88
2021/12/17 01:16:12;;;;;;;8.90;6.35;;;;;;;14.83;53.51;102957.41;4879658;29;20136;-88
2021/12/17 01:18:53;;;;;;;6.93;5.20;;;;;;;14.74;53.72;102953.41;4881146;29;20035;-88
2021/12/17 01:41:02;;;;;;;9.43;6.35;;;;;;;14.60;54.05;102947.88;4899157;29;20025;-88
2021/12/17 01:42:46;;;;;;;7.72;6.03;;;;;;;14.81;53.09;102948.69;4900962;29;20567;-88
2021/12/17 01:45:11;;;;;;;9.48;6.65;;;;;;;14.85;53.36;102950.28;4897756;29;20033;-88
2021/12/17 01:47:37;;;;;;;9.00;6.53;;;;;;;14.67;53.83;102951.94;4899057;29;20035;-88
2021/12/17 01:55:49;;;;;;;8.90;7.25;;;;;;;14.66;53.71;102944.97;4898569;29;20610;-88
2021/12/17 02:01:00;;;;;;;8.75;6.82;;;;;;;14.73;53.86;102946.41;4898535;29;20090;-87
2021/12/17 02:03:25;;;;;;;9.70;7.32;;;;;;;14.79;53.94;102951.44;4898612;29;20040;-88
2021/12/17 02:05:51;;;;;;;12.13;7.45;;;;;;;14.77;53.91;102942.69;4898835;29;20028;-88
2021/12/17 02:08:16;;;;;;;10.02;7.72;;;;;;;14.79;53.89;102946.13;4896716;29;20455;-88
2021/12/17 02:31:54;;;;;;;10.00;7.95;;;;;;;14.72;53.70;102949.13;4898085;29;20032;-88
2021/12/17 02:37:09;;;;;;;10.57;7.97;;;;;;;14.76;53.55;102956.84;4880964;29;20519;-88
2021/12/17 02:42:34;;;;;;;9.45;7.03;;;;;;;14.75;53.72;102946.31;4879174;29;20499;-88
2021/12/17 02:47:44;;;;;;;10.15;7.43;;;;;;;14.65;53.80;102937.94;4898179;29;20035;-87
2021/12/17 02:50:11;;;;;;;10.60;7.78;;;;;;;14.77;53.16;102948.00;4897688;29;20025;-87
2021/12/17 02:52:38;;;;;;;10.50;7.10;;;;;;;14.50;54.32;102955.31;4897188;29;20080;-88
2021/12/17 02:55:07;;;;;;;8.82;7.57;;;;;;;14.73;53.73;102948.19;4896166;29;20124;-87
2021/12/17 02:57:34;;;;;;;12.50;8.15;;;;;;;14.45;53.94;102946.72;4897237;29;20108;-87
2021/12/17 03:00:03;;;;;;;8.32;7.18;;;;;;;14.68;53.57;102943.09;4881896;29;20021;-87
2021/12/17 03:02:31;;;;;;;11.68;8.55;;;;;;;14.63;53.83;102931.88;4878889;29;20029;-87
2021/12/17 03:04:57;;;;;;;13.05;7.40;;;;;;;14.78;53.55;102940.91;4879690;29;20025;-87
2021/12/17 03:07:22;;;;;;;9.48;7.72;;;;;;;14.83;53.51;102928.31;4879050;29;20065;-88
2021/12/17 03:10:04;;;;;;;10.70;7.47;;;;;;;14.74;53.75;102929.59;4877707;29;20040;-87
2021/12/17 03:12:42;;;;;;;11.60;6.78;;;;;;;14.65;53.28;102930.88;4897107;29;20454;-88
2021/12/17 03:25:38;;;;;;;8.45;6.72;;;;;;;14.74;53.70;102931.41;4895953;29;20164;-88
2021/12/17 03:28:04;;;;;;;9.10;6.55;;;;;;;14.75;53.73;102941.03;4895886;29;20112;-87
2021/12/17 03:30:30;;;;;;;11.27;6.93;;;;;;;14.59;54.21;102928.53;4910785;29;20028;-88
2021/12/17 03:32:55;;;;;;;9.20;6.88;;;;;;;14.58;53.61;102926.78;4916274;29;20108;-88
2021/12/17 03:35:21;;;;;;;10.00;6.68;;;;;;;14.61;53.89;102921.38;4916106;29;20032;-88
2021/12/17 03:37:46;;;;;;;7.68;6.20;;;;;;;14.62;54.59;102923.06;4915931;29;20040;-88
2021/12/17 03:40:15;;;;;;;10.32;6.78;;;;;;;14.61;53.62;102923.16;4916147;29;20028;-88
2021/12/17 03:42:46;;;;;;;9.70;6.80;;;;;;;14.70;53.95;102930.66;4888052;29;20032;-88
2021/12/17 03:45:12;;;;;;;10.88;6.88;;;;;;;14.66;54.18;102923.81;4878364;29;20037;-88
2021/12/17 03:47:37;;;;;;;8.15;6.55;;;;;;;14.63;54.39;102923.94;4878602;29;20531;-88
2021/12/17 03:50:04;;;;;;;9.48;7.00;;;;;;;14.67;53.49;102918.47;4880674;29;20112;-88
2021/12/17 03:52:29;;;;;;;7.63;6.55;;;;;;;14.65;53.85;102922.97;4878504;29;20041;-87
2021/12/17 03:54:54;;;;;;;8.77;7.18;;;;;;;14.75;53.85;102926.03;4878566;29;20033;-88
2021/12/17 03:57:21;;;;;;;9.23;7.60;;;;;;;14.67;53.93;102929.03;4878102;29;20104;-88
2021/12/17 03:59:47;;;;;;;10.52;6.63;;;;;;;14.79;53.97;102930.25;4878589;29;20395;-88
2021/12/17 04:02:12;;;;;;;10.55;6.57;;;;;;;14.75;53.77;102925.16;4878441;29;20033;-88
2021/12/17 04:04:37;;;;;;;8.23;6.90;;;;;;;14.71;54.25;102936.81;4878435;29;20531;-88
2021/12/17 04:07:03;;;;;;;8.75;6.25;;;;;;;14.63;54.06;102924.81;4896030;29;20518;-88
2021/12/17 04:09:30;;;;;;;8.18;6.78;;;;;;;14.66;54.14;102918.53;4897238;29;20036;-88
2021/12/17 04:11:56;;;;;;;9.00;7.00;;;;;;;14.81;52.83;102923.13;4895599;29;20084;-88
2021/12/17 04:14:32;;;;;;;7.97;6.47;;;;;;;14.72;53.60;102927.97;4896966;29;20056;-88
2021/12/17 04:17:02;;;;;;;8.40;6.18;;;;;;;14.63;53.43;102923.94;4900654;29;20032;-88
2021/12/17 04:19:28;;;;;;;10.38;5.82;;;;;;;14.61;53.37;102920.50;4900621;29;20036;-88
2021/12/17 04:21:53;;;;;;;10.40;7.20;;;;;;;14.71;53.15;102924.47;4900788;29;20084;-88
2021/12/17 04:24:19;;;;;;;11.80;6.38;;;;;;;14.75;53.16;102933.09;4900469;29;20028;-88
2021/12/17 04:26:44;;;;;;;11.85;6.93;;;;;;;14.61;53.79;102929.31;4889971;29;20029;-88
2021/12/17 04:29:10;;;;;;;12.73;7.20;;;;;;;14.60;54.04;102930.22;4881707;29;20033;-88
2021/12/17 04:31:35;;;;;;;10.25;6.90;;;;;;;14.54;53.16;102932.25;4881494;29;20408;-88
2021/12/17 04:34:02;;;;;;;9.18;6.03;;;;;;;14.26;54.09;102930.84;4881590;29;20090;-88
2021/12/17 04:36:31;;;;;;;9.05;6.07;;;;;;;14.44;53.78;102931.81;4880493;29;20029;-88
2021/12/17 04:38:58;;;;;;;8.10;6.47;;;;;;;14.58;52.98;102929.44;4881996;29;20480;-88
2021/12/17 04:41:46;;;;;;;8.23;6.30;;;;;;;14.73;52.74;102930.53;4890633;29;20020;-87
2021/12/17 04:57:35;;;;;;;7.35;6.28;;;;;;;14.59;53.29;102928.53;4881259;29;20036;-88
2021/12/17 05:00:06;;;;;;;10.63;6.10;;;;;;;14.72;52.98;102938.53;4881599;29;20040;-88
2021/12/17 05:02:38;;;;;;;8.07;6.45;;;;;;;14.75;53.00;102935.75;4893498;29;20036;-88
2021/12/17 05:05:07;;;;;;;8.70;5.40;;;;;;;14.55;53.05;102920.75;4900019;29;20036;-88
2021/12/17 05:07:35;;;;;;;9.35;7.22;;;;;;;14.32;53.59;102930.56;4899618;29;20087;-88
2021/12/17 05:18:19;;;;;;;8.20;6.32;;;;;;;14.74;52.60;102921.66;4899626;29;20042;-88
2021/12/17 05:20:53;;;;;;;8.35;6.00;;;;;;;14.67;52.98;102920.22;4899596;29;20032;-88
2021/12/17 05:23:23;;;;;;;8.60;6.15;;;;;;;14.67;53.01;102918.47;4899481;29;20511;-88
2021/12/17 05:25:50;;;;;;;13.60;6.75;;;;;;;14.46;52.75;102922.03;4899301;29;20107;-88
2021/12/17 05:28:16;;;;;;;6.82;5.78;;;;;;;14.47;53.00;102915.78;4899495;29;20124;-88
2021/12/17 05:30:46;;;;;;;13.63;6.70;;;;;;;14.24;53.75;102914.19;4886729;29;20045;-88
2021/12/17 05:33:13;;;;;;;10.75;6.07;;;;;;;14.31;53.63;102915.63;4880754;29;20029;-88
2021/12/17 05:35:38;;;;;;;9.13;5.55;;;;;;;14.45;53.15;102913.25;4880233;29;20029;-88
2021/12/17 05:38:04;;;;;;;9.50;6.25;;;;;;;14.50;53.08;102907.75;4879114;29;20029;-88
2021/12/17 05:40:29;;;;;;;14.95;7.63;;;;;;;14.60;52.82;102910.88;4880638;29;20064;-88
2021/12/17 05:42:59;;;;;;;9.73;6.15;;;;;;;14.36;53.23;102912.78;4880298;29;20036;-88
2021/12/17 05:45:35;;;;;;;8.32;5.95;;;;;;;14.27;53.44;102906.09;4889890;29;20032;-88
2021/12/17 05:48:06;;;;;;;10.73;7.25;;;;;;;14.15;53.90;102909.28;4899190;29;20056;-88
2021/12/17 05:50:33;;;;;;;7.32;6.40;;;;;;;14.38;53.16;102908.28;4899249;29;20092;-87
2021/12/17 05:52:59;;;;;;;10.68;6.55;;;;;;;14.27;53.56;102903.47;4898937;29;20124;-88
2021/12/17 05:55:26;;;;;;;12.02;6.68;;;;;;;14.33;53.23;102911.13;4898958;29;20041;-88
2021/12/17 05:57:52;;;;;;;7.10;5.07;;;;;;;14.36;52.93;102900.44;4899050;29;20033;-88
2021/12/17 06:00:19;;;;;;;9.07;5.82;;;;;;;14.42;52.88;102907.22;4891800;29;20643;-89
2021/12/17 06:02:44;;;;;;;7.85;5.65;;;;;;;14.55;52.76;102905.72;4880040;29;20107;-88
2021/12/17 06:05:10;;;;;;;8.65;6.22;;;;;;;14.08;53.55;102906.91;4879979;29;20112;-88
2021/12/17 06:07:35;;;;;;;11.05;7.57;;;;;;;14.35;53.28;102911.91;4880164;29;20044;-88
2021/12/17 06:10:03;;;;;;;9.00;6.68;;;;;;;14.33;53.16;102915.56;4879870;29;20037;-88
2021/12/17 06:12:29;;;;;;;9.90;6.00;;;;;;;14.49;52.86;102911.28;4880254;29;20029;-88
2021/12/17 06:14:54;;;;;;;11.38;7.03;;;;;;;14.40;52.86;102909.09;4887986;29;20029;-88
2021/12/17 06:17:20;;;;;;;8.10;5.70;;;;;;;14.34;53.11;102906.72;4898704;29;20093;-88
2021/12/17 06:19:46;;;;;;;9.07;5.97;;;;;;;14.42;53.17;102912.50;4898553;29;20029;-88
2021/12/17 06:22:11;;;;;;;9.85;6.15;;;;;;;14.49;52.78;102916.59;4898175;29;20036;-88
2021/12/17 06:24:37;;;;;;;9.85;6.15;;;;;;;14.30;53.06;102913.91;4898066;29;20119;-88
2021/12/17 06:27:03;;;;;;;9.60;6.78;;;;;;;14.10;53.33;102914.78;4898298;29;20044;-88
2021/12/17 06:29:28;;;;;;;10.32;6.38;;;;;;;14.29;52.97;102914.81;4890865;29;20028;-88
2021/12/17 06:31:53;;;;;;;10.45;6.55;;;;;;;14.38;53.09;102910.94;4879484;29;20037;-88
2021/12/17 06:34:19;;;;;;;10.75;6.25;;;;;;;14.26;53.58;102910.53;4879523;29;20025;-89
2021/12/17 06:36:44;;;;;;;11.43;6.15;;;;;;;14.33;53.03;102913.75;4879388;29;20025;-88
2021/12/17 06:39:10;;;;;;;8.52;5.85;;;;;;;14.38;53.02;102921.50;4878568;29;20029;-88
2021/12/17 06:41:37;;;;;;;12.73;7.25;;;;;;;14.39;52.76;102928.50;4878887;29;20181;-88
2021/12/17 06:44:03;;;;;;;13.18;6.90;;;;;;;14.28;53.35;102919.25;4884195;29;20033;-88
2021/12/17 06:57:58;;;;;;;11.50;7.10;;;;;;;14.30;53.15;102927.13;4897900;29;20060;-88
2021/12/17 07:33:46;;;;;;;14.20;7.45;;;;;;;14.38;52.88;102940.00;4896435;29;20047;-85
2021/12/17 07:36:17;;;;;;;11.18;7.18;;;;;;;14.33;52.90;102936.69;4898496;29;20036;-86
2021/12/17 07:38:50;;;;;;;10.95;7.68;;;;;;;14.30;53.10;102935.06;4897010;29;20083;-85
2021/12/17 07:41:17;;;;;;;10.45;6.90;;;;;;;14.28;53.33;102929.81;4897629;29;20107;-86
2021/12/17 07:43:54;;;;;;;10.48;7.57;;;;;;;14.37;52.80;102936.47;4897021;29;20025;-86
2021/12/17 07:46:21;;;;;;;7.25;5.93;;;;;;;14.38;53.24;102942.66;4911238;29;20482;-85
2021/12/17 07:48:47;;;;;;;7.90;6.35;;;;;;;14.46;53.14;102943.16;4900729;29;20444;-86
2021/12/17 07:51:15;;;;;;;13.23;8.35;;;;;;;14.37;53.44;102949.69;4900456;29;20032;-86
2021/12/17 07:53:41;;;;;;;13.88;7.40;;;;;;;14.30;52.87;102945.63;4898725;29;20387;-87
2021/12/17 07:56:10;;;;;;;11.00;6.95;;;;;;;14.32;53.32;102942.94;4907843;29;20028;-89
2021/12/17 07:58:35;;;;;;;12.20;7.95;;;;;;;14.27;53.28;102951.88;4900629;29;20506;-86
2021/12/17 08:01:01;;;;;;;11.65;7.60;;;;;;;14.37;52.98;102954.13;4891770;29;20025;-87
2021/12/17 08:03:26;;;;;;;10.45;7.68;;;;;;;14.42;52.38;102950.38;4893835;29;20064;-86
2021/12/17 08:05:52;;;;;;;10.57;7.35;;;;;;;14.35;52.95;102956.84;4904451;29;20066;-86
2021/12/17 08:08:19;;;;;;;8.95;7.78;;;;;;;14.44;52.57;102955.59;4882100;29;20033;-86
2021/12/17 08:10:47;;;;;;;12.43;6.90;;;;;;;14.36;52.47;102953.28;4883325;29;20475;-88
2021/12/17 08:13:19;;;;;;;9.52;6.57;;;;;;;14.08;53.32;102950.97;4904742;29;20055;-89
2021/12/17 08:15:58;;;;;;;12.02;7.22;;;;;;;14.26;52.75;102957.25;4913539;29;20135;-89
2021/12/17 08:26:15;;;;;;;10.73;6.30;;;;;;;14.25;52.83;102971.38;4903600;29;20032;-90
2021/12/17 08:28:52;;;;;;;10.52;7.40;;;;;;;14.20;52.90;102968.94;4900236;29;20036;-90
2021/12/17 08:31:18;;;;;;;9.38;7.28;;;;;;;14.01;53.34;102975.91;4894415;29;20379;-91
2021/12/17 08:33:44;;;;;;;11.00;7.95;;;;;;;13.98;53.96;102962.81;4916761;29;20495;-89
2021/12/17 08:36:10;;;;;;;9.30;7.05;;;;;;;13.98;54.06;102978.66;4899059;29;20036;-89
2021/12/17 08:38:35;;;;;;;13.13;8.90;;;;;;;14.01;53.75;102968.00;4899295;29;20189;-91
2021/12/17 08:41:01;;;;;;;10.75;7.65;;;;;;;14.10;53.58;102972.91;4901179;29;20032;-89
2021/12/17 08:43:26;;;;;;;10.65;8.23;;;;;;;14.24;53.24;102970.53;4891839;29;20033;-91
2021/12/17 08:45:53;;;;;;;12.32;7.65;;;;;;;14.34;52.65;102970.16;4888893;29;20044;-92
2021/12/17 08:48:18;;;;;;;10.38;7.38;;;;;;;14.38;52.67;102977.88;4890803;29;20033;-91
2021/12/17 08:50:43;;;;;;;12.20;7.80;;;;;;;14.31;52.97;102970.25;4900832;29;20048;-91
2021/12/17 08:53:09;;;;;;;10.35;7.22;;;;;;;14.34;53.04;102980.72;4900584;29;20040;-92
2021/12/17 08:55:34;;;;;;;8.73;6.43;;;;;;;14.41;53.07;102971.56;4899722;29;20436;-91
2021/12/17 08:58:00;;;;;;;10.70;7.72;;;;;;;14.40;52.86;102975.16;4900400;29;20036;-92
2021/12/17 09:00:25;;;;;;;12.35;8.20;;;;;;;14.39;52.37;102978.72;4900050;29;20020;-91
2021/12/17 09:02:51;;;;;;;10.07;7.78;;;;;;;14.37;52.82;102975.28;4901292;29;20120;-89
2021/12/17 09:05:18;;;;;;;10.98;7.55;;;;;;;14.40;53.50;102985.75;4897379;29;20111;-91
2021/12/17 09:07:44;;;;;;;11.40;8.25;;;;;;;14.52;52.32;102993.13;4900467;29;20043;-91
2021/12/17 09:10:11;;;;;;;9.55;7.45;;;;;;;14.51;52.43;102993.19;4899216;29;20028;-92
2021/12/17 09:12:37;;;;;;;10.32;7.35;;;;;;;14.27;52.52;102985.38;4900111;29;20480;-92
2021/12/17 09:15:04;;;;;;;15.95;8.75;;;;;;;14.32;52.54;102982.56;4898800;29;20119;-91
2021/12/17 09:17:29;;;;;;;10.77;7.63;;;;;;;14.54;52.16;102986.00;4900217;29;20029;-92
2021/12/17 09:19:55;;;;;;;10.55;8.18;;;;;;;14.40;52.50;102991.88;4887524;29;20129;-93
2021/12/17 09:22:21;;;;;;;11.82;8.30;;;;;;;14.47;52.30;103001.28;4881491;29;20029;-92
2021/12/17 09:24:46;;;;;;;12.50;8.18;;;;;;;14.47;51.95;102998.63;4880905;29;20437;-92
2021/12/17 09:27:12;;;;;;;11.40;8.18;;;;;;;14.49;51.95;103001.19;4881361;29;20068;-92
2021/12/17 09:29:37;;;;;;;12.10;7.78;;;;;;;14.49;52.40;102993.25;4881527;29;20033;-91
2021/12/17 09:32:03;;;;;;;12.70;7.55;;;;;;;14.59;52.13;103002.56;4881991;29;20033;-92
2021/12/17 09:34:28;;;;;;;9.80;7.45;;;;;;;14.54;51.69;103015.06;4881117;29;20444;-90
2021/12/17 09:36:53;;;;;;;13.50;8.05;;;;;;;14.52;51.91;103010.78;4881306;29;20025;-92
2021/12/17 09:39:19;;;;;;;12.63;7.20;;;;;;;14.27;52.33;103007.38;4881065;29;20025;-92
2021/12/17 09:41:50;;;;;;;9.23;7.00;;;;;;;14.20;52.33;103007.72;4881199;29;20033;-90
2021/12/17 09:44:18;;;;;;;10.80;7.37;;;;;;;14.33;52.03;103000.13;4880911;29;20427;-91
2021/12/17 09:46:46;;;;;;;9.20;7.07;;;;;;;14.50;52.21;103002.91;4894297;29;20269;-92
2021/12/17 09:49:12;;;;;;;10.40;7.45;;;;;;;14.66;51.99;103008.44;4882862;29;20461;-92
2021/12/17 09:51:38;;;;;;;9.57;6.97;;;;;;;14.62;52.13;103012.97;4880926;29;20104;-92
2021/12/17 09:54:04;;;;;;;12.13;7.85;;;;;;;14.70;51.69;103015.28;4879950;29;20049;-91
2021/12/17 09:56:29;;;;;;;8.25;7.15;;;;;;;14.83;51.70;103010.31;4881092;29;20037;-91
2021/12/17 09:58:55;;;;;;;11.27;7.95;;;;;;;14.68;52.05;103010.06;4881407;29;20029;-91
2021/12/17 10:01:21;;;;;;;10.13;7.18;;;;;;;14.77;51.54;103003.53;4882214;29;20452;-90
2021/12/17 10:03:46;;;;;;;9.07;6.60;;;;;;;14.75;51.94;103007.16;4880692;29;20068;-92
2021/12/17 10:06:22;;;;;;;12.07;7.15;;;;;;;14.87;51.00;103006.63;4880948;29;20111;-91
2021/12/17 10:08:49;;;;;;;13.23;7.78;;;;;;;14.76;51.53;103006.25;4880993;29;20069;-92
2021/12/17 10:11:17;;;;;;;13.80;7.93;;;;;;;14.77;51.17;103005.28;4881229;29;20029;-89
2021/12/17 10:13:42;;;;;;;10.68;7.43;;;;;;;14.50;50.88;103002.06;4879326;29;20032;-90
2021/12/17 10:16:10;;;;;;;9.57;6.15;;;;;;;14.26;51.86;102999.53;4882588;29;20025;-90
2021/12/17 10:18:43;;;;;;;9.18;6.45;;;;;;;14.24;51.94;103007.53;4880433;29;20021;-89
2021/12/17 10:21:10;;;;;;;9.52;6.72;;;;;;;14.73;50.88;102998.41;4879277;29;20515;-92
2021/12/17 10:23:37;;;;;;;12.20;7.57;;;;;;;14.64;51.06;103011.13;4880162;29;20580;-92
2021/12/17 10:26:03;;;;;;;9.18;7.03;;;;;;;14.76;50.91;103012.38;4880460;29;20035;-92
2021/12/17 10:28:30;;;;;;;12.10;7.78;;;;;;;14.65;51.60;103015.50;4880140;29;20058;-90
2021/12/17 10:30:56;;;;;;;11.32;8.43;;;;;;;14.52;52.14;103011.63;4880503;29;20052;-90
2021/12/17 10:33:25;;;;;;;12.20;8.25;;;;;;;14.74;51.34;103018.66;4880048;29;20056;-90
2021/12/17 10:35:52;;;;;;;11.55;8.93;;;;;;;14.64;51.68;103016.41;4880185;29;20058;-90
2021/12/17 10:38:25;;;;;;;14.55;7.63;;;;;;;14.78;51.00;103013.16;4880097;29;20476;-92
2021/12/17 10:41:06;;;;;;;13.90;7.88;;;;;;;14.78;51.20;103018.47;4880098;29;20484;-90
2021/12/17 10:43:40;;;;;;;12.53;7.33;;;;;;;14.77;51.07;103011.47;4879962;29;20075;-90
2021/12/17 10:46:19;;;;;;;10.15;7.30;;;;;;;14.94;50.60;103013.34;4889259;29;20031;-90
2021/12/17 10:54:02;;;;;;;13.80;7.65;;;;;;;14.92;50.82;102999.31;4898649;29;20049;-90
2021/12/17 10:56:32;;;;;;;9.47;6.20;;;;;;;14.73;50.75;103009.88;4897188;29;20024;-91
2021/12/17 10:59:13;;;;;;;10.02;6.15;;;;;;;14.97;49.64;103013.22;4898583;29;20653;-89
2021/12/17 11:01:46;;;;;;;10.27;6.45;;;;;;;14.95;50.20;103004.50;4894272;29;20029;-90
2021/12/17 11:04:23;;;;;;;9.68;6.22;;;;;;;14.79;50.60;103006.97;4898093;29;20064;-90
2021/12/17 11:07:16;;;;;;;7.82;6.38;;;;;;;14.44;50.42;103009.31;4895076;29;20032;-89
2021/12/17 11:09:49;;;;;;;9.77;5.78;;;;;;;14.54;50.50;103007.13;4897912;29;20028;-90
2021/12/17 11:12:26;;;;;;;8.75;5.88;;;;;;;14.80;50.02;103003.38;4896851;29;20080;-90
2021/12/17 11:14:51;;;;;;;13.35;6.30;;;;;;;14.29;50.70;103004.69;4898121;29;20039;-90
2021/12/17 11:17:21;;;;;;;8.55;6.53;;;;;;;14.37;50.87;103002.56;4899129;29;20021;-89
2021/12/17 11:19:50;;;;;;;8.27;5.70;;;;;;;14.83;49.85;102994.44;4897790;29;20539;-89
2021/12/17 11:22:17;;;;;;;7.55;5.43;;;;;;;14.48;50.55;103000.31;4897095;29;20116;-90
2021/12/17 11:24:43;;;;;;;9.00;5.30;;;;;;;14.64;50.19;103002.34;4897158;29;20028;-92
2021/12/17 11:27:08;;;;;;;7.43;5.47;;;;;;;14.28;50.67;102987.97;4897476;29;20029;-89
2021/12/17 11:29:34;;;;;;;7.65;5.40;;;;;;;14.66;49.98;102980.19;4898150;29;20431;-90
2021/12/17 11:32:00;;;;;;;9.02;6.00;;;;;;;14.56;50.15;102978.00;4898525;29;20032;-90
2021/12/17 11:34:27;;;;;;;8.20;5.75;;;;;;;14.83;50.02;102975.91;4897833;29;20092;-90
2021/12/17 11:36:54;;;;;;;5.70;4.85;;;;;;;14.76;50.13;102959.47;4897997;29;20037;-90
2021/12/17 11:39:22;;;;;;;12.27;5.38;;;;;;;14.77;50.02;102962.97;4896590;29;20107;-90
2021/12/17 11:41:54;;;;;;;9.52;5.03;;;;;;;14.90;50.03;102964.16;4898053;29;20494;-90
2021/12/17 11:44:21;;;;;;;9.38;5.32;;;;;;;15.13;49.59;102964.91;4882867;29;20048;-90
2021/12/17 11:47:02;;;;;;;12.18;5.97;;;;;;;15.23;49.43;102964.38;4879348;29;20033;-90
2021/12/17 11:49:34;;;;;;;14.95;6.72;;;;;;;15.16;49.93;102964.72;4879325;29;20025;-90
2021/12/17 11:52:00;;;;;;;9.02;6.38;;;;;;;15.15;49.62;102961.25;4879388;29;20026;-90
2021/12/17 11:54:33;;;;;;;7.00;5.63;;;;;;;15.32;49.03;102957.78;4879181;29;20101;-90
2021/12/17 11:57:11;;;;;;;8.98;5.35;;;;;;;15.28;49.08;102964.16;4879392;29;20037;-90
2021/12/17 11:59:43;;;;;;;6.70;5.65;;;;;;;15.04;49.12;102960.88;4894402;29;20028;-90
2021/12/17 12:02:23;;;;;;;8.68;5.82;;;;;;;15.19;49.28;102961.97;4897731;29;20092;-90
2021/12/17 12:05:00;;;;;;;6.63;5.57;;;;;;;15.40;49.15;102950.34;4897885;29;20055;-90
2021/12/17 12:07:25;;;;;;;10.48;6.20;;;;;;;14.90;49.55;102952.72;4897847;29;20039;-91
2021/12/17 12:10:03;;;;;;;14.15;7.22;;;;;;;14.86;49.76;102957.28;4897774;29;20104;-91
2021/12/17 12:12:34;;;;;;;7.70;5.93;;;;;;;14.83;50.12;102952.13;4897403;29;20029;-91
2021/12/17 12:15:22;;;;;;;8.30;6.25;;;;;;;14.70;50.43;102948.34;4879045;29;20037;-91
2021/12/17 12:18:09;;;;;;;7.20;6.30;;;;;;;14.97;49.85;102949.72;4878938;29;20040;-90
2021/12/17 12:20:50;;;;;;;8.95;6.25;;;;;;;15.10;49.36;102941.22;4893155;29;20028;-91
2021/12/17 12:23:27;;;;;;;9.40;6.45;;;;;;;15.22;48.98;102943.28;4897447;29;20037;-91
2021/12/17 12:26:04;;;;;;;7.75;5.63;;;;;;;15.33;48.89;102938.34;4895909;29;20040;-90
2021/12/17 12:28:45;;;;;;;8.55;5.85;;;;;;;14.95;49.41;102938.34;4897809;29;20155;-90
2021/12/17 12:31:17;;;;;;;9.25;6.38;;;;;;;14.74;50.15;102931.41;4897441;29;20115;-90
2021/12/17 12:34:00;;;;;;;;;;;;;;;15.11;49.00;102935.84;4897554;29;20560;-91
2021/12/17 12:36:50;;;;;;;9.65;6.07;;;;;;;14.99;49.53;102931.13;4899147;29;19919;-90
2021/12/17 12:39:46;;;;;;;9.77;5.82;;;;;;;15.16;49.13;102938.28;4898846;29;20025;-90
2021/12/17 12:42:31;;;;;;;9.73;6.40;;;;;;;14.82;49.80;102930.09;4889154;29;20035;-90
2021/12/17 12:44:56;;;;;;;6.93;5.63;;;;;;;14.80;50.00;102925.81;4900620;29;20029;-90
2021/12/17 12:47:22;;;;;;;9.35;6.32;;;;;;;15.03;49.63;102933.56;4899587;29;20107;-88
2021/12/17 12:49:56;;;;;;;8.60;5.88;;;;;;;15.05;49.44;102926.41;4900135;29;20025;-89
2021/12/17 12:52:34;;;;;;;7.80;6.38;;;;;;;14.90;49.83;102927.13;4898861;29;20570;-88
2021/12/17 12:55:17;;;;;;;10.55;6.47;;;;;;;15.20;49.49;102916.03;4890248;29;20029;-89
2021/12/17 12:57:44;;;;;;;10.85;6.57;;;;;;;15.43;48.97;102917.56;4880859;29;20036;-89
2021/12/17 13:00:27;;;;;;;14.30;6.95;;;;;;;15.29;49.27;102914.75;4891300;29;20032;-89
2021/12/17 13:03:00;;;;;;;8.27;6.20;;;;;;;15.40;49.11;102909.75;4901735;29;20032;-88
2021/12/17 13:05:26;;;;;;;9.98;7.43;;;;;;;15.39;49.26;102919.50;4891651;29;20032;-88
2021/12/17 13:07:57;;;;;;;10.10;7.60;;;;;;;15.26;49.52;102906.03;4900081;29;20032;-88
2021/12/17 13:10:27;;;;;;;12.98;9.18;;;;;;;15.30;49.30;102905.84;4899793;29;20029;-88
2021/12/17 13:13:10;;;;;;;15.32;10.20;;;;;;;15.14;49.77;102913.66;4899521;29;20029;-88
2021/12/17 13:16:24;;;;;;;10.95;9.82;;;;;;;15.35;49.52;102915.28;4886500;29;20032;-89
2021/12/17 13:24:37;;;;;;;15.07;10.75;;;;;;;15.01;50.51;102903.66;4880921;29;20449;-88
2021/12/17 13:26:58;;;;;;;14.88;10.30;;;;;;;14.88;50.57;102902.53;4881454;29;20483;-89
2021/12/17 13:29:31;;;;;;;15.55;9.13;;;;;;;14.73;50.80;102913.81;4881742;29;20429;-88
2021/12/17 13:32:03;;;;;;;11.18;8.52;;;;;;;14.68;50.78;102900.78;4880340;29;20403;-89
2021/12/17 13:34:32;;;;;;;10.27;8.57;;;;;;;14.56;51.00;102891.63;4880641;29;20040;-89
2021/12/17 13:37:13;;;;;;;10.57;8.43;;;;;;;14.52;50.77;102889.19;4880582;29;20048;-89
2021/12/17 13:39:43;;;;;;;12.13;8.90;;;;;;;14.71;50.93;102895.38;4879451;29;20029;-89
2021/12/17 13:42:12;;;;;;;16.05;9.52;;;;;;;14.77;50.82;102894.22;4880710;29;20083;-89
2021/12/17 13:44:50;;;;;;;11.85;9.05;;;;;;;14.93;50.84;102892.59;4880713;29;20036;-89
2021/12/17 13:47:17;;;;;;;12.10;9.57;;;;;;;14.97;50.80;102880.94;4887654;29;20012;-89
2021/12/17 13:49:48;;;;;;;14.15;10.55;;;;;;;15.02;50.52;102888.66;4899143;29;20034;-89
2021/12/17 13:52:14;;;;;;;14.52;10.27;;;;;;;15.00;50.65;102880.78;4899035;29;20040;-89
2021/12/17 13:54:40;;;;;;;11.40;10.18;;;;;;;14.93;50.36;102879.38;4898450;29;20037;-89
2021/12/17 13:57:07;;;;;;;14.48;9.98;;;;;;;14.93;50.52;102874.06;4898955;29;20439;-89
2021/12/17 13:59:34;;;;;;;12.40;8.18;;;;;;;14.88;50.03;102879.56;4880559;29;20116;-89
2021/12/17 14:02:15;;;;;;;12.25;9.05;;;;;;;14.95;50.46;102877.50;4880186;29;20030;-89
2021/12/17 14:04:42;;;;;;;13.18;9.40;;;;;;;14.96;50.34;102875.72;4881147;29;20447;-89
2021/12/17 14:07:08;;;;;;;13.45;9.07;;;;;;;14.93;50.70;102868.78;4880069;29;20025;-89
2021/12/17 14:09:34;;;;;;;10.48;7.88;;;;;;;14.99;50.74;102873.78;4879914;29;20029;-89
2021/12/17 14:12:08;;;;;;;13.38;9.02;;;;;;;14.86;50.73;102862.06;4880043;29;20037;-89
2021/12/17 14:14:35;;;;;;;9.82;8.43;;;;;;;14.53;51.13;102867.94;4879881;29;20029;-89
2021/12/17 14:17:05;;;;;;;8.75;7.20;;;;;;;14.56;51.01;102869.59;4880418;29;20021;-89
2021/12/17 14:19:50;;;;;;;8.43;6.82;;;;;;;14.90;50.73;102870.72;4880952;29;20021;-89
2021/12/17 14:22:33;;;;;;;10.27;8.15;;;;;;;14.74;50.81;102862.63;4880021;29;20029;-89
2021/12/17 14:24:59;;;;;;;12.57;7.82;;;;;;;14.81;50.64;102866.69;4879801;29;20064;-89
2021/12/17 14:27:46;;;;;;;9.38;6.72;;;;;;;14.91;50.53;102869.75;4879938;29;20033;-89
2021/12/17 14:30:12;;;;;;;10.43;6.82;;;;;;;14.85;50.11;102863.00;4879767;29;20025;-89
2021/12/17 14:32:43;;;;;;;6.65;5.95;;;;;;;14.40;51.23;102869.44;4879789;29;20033;-89
2021/12/17 14:35:09;;;;;;;10.43;5.18;;;;;;;14.24;51.62;102872.75;4894477;29;20032;-89
2021/12/17 14:37:51;;;;;;;8.15;5.43;;;;;;;14.37;51.37;102866.91;4898385;29;20392;-89
2021/12/17 14:40:52;;;;;;;6.07;4.38;;;;;;;14.44;51.44;102868.38;4898156;29;20466;-89
2021/12/17 14:43:26;;;;;;;8.02;5.63;;;;;;;14.61;50.99;102863.22;4898135;29;20486;-89